Stations météo

réclame
Mon MeteoGroup
Fyvie castle, Grande-Bretagne (99010): Température de l'air & dewpoint: 09.11.2018 09:00:00 - 15.11.2018 09:00:00 (GMT)Fyvie castle, Grande-Bretagne (99010): Quantités de précipitations: 09.11.2018 09:00:00 - 15.11.2018 09:00:00 (GMT)
Date & Time tt [°C] td [°C] rr [mm]
15.11.2018 09:00:00 - - -
15.11.2018 08:00:00 10,7 9,2 0,0
15.11.2018 07:00:00 11,4 9,5 0,0
15.11.2018 06:00:00 11,5 9,6 0,0
15.11.2018 05:00:00 11,0 9,4 0,0
15.11.2018 04:00:00 11,6 9,4 0,0
15.11.2018 03:00:00 12,3 9,6 0,0
15.11.2018 02:00:00 12,7 9,9 0,0
15.11.2018 01:00:00 12,9 9,9 0,0
15.11.2018 00:00:00 13,0 10,2 0,0
14.11.2018 23:00:00 13,4 10,6 0,0
14.11.2018 22:00:00 13,3 10,8 0,0
14.11.2018 21:00:00 13,2 11,0 0,0
14.11.2018 20:00:00 13,6 10,9 0,0
14.11.2018 19:00:00 13,7 10,8 0,0
14.11.2018 18:00:00 13,9 11,1 0,0
14.11.2018 17:00:00 14,0 11,1 0,0
14.11.2018 16:00:00 14,2 11,5 0,0
14.11.2018 15:00:00 14,1 11,7 0,0
14.11.2018 14:00:00 13,2 11,5 0,0
14.11.2018 13:00:00 11,7 10,9 0,0
14.11.2018 12:00:00 10,7 10,0 0,2
14.11.2018 11:00:00 10,1 9,6 0,6
14.11.2018 10:00:00 9,8 9,2 1,0
14.11.2018 09:00:00 9,7 9,0 1,2
14.11.2018 08:00:00 9,6 8,6 0,4
14.11.2018 07:00:00 10,1 8,4 0,4
14.11.2018 06:00:00 10,6 8,3 0,0
14.11.2018 05:00:00 10,3 8,2 0,0
14.11.2018 04:00:00 10,1 7,8 0,0
14.11.2018 03:00:00 9,4 7,3 0,0
14.11.2018 02:00:00 9,2 6,9 0,0
14.11.2018 01:00:00 8,6 6,6 0,0
14.11.2018 00:00:00 8,1 5,8 0,0
13.11.2018 23:00:00 7,1 5,4 0,0
13.11.2018 22:00:00 5,1 4,3 0,0
13.11.2018 21:00:00 5,4 4,6 0,0
13.11.2018 20:00:00 2,2 1,9 0,0
13.11.2018 19:00:00 2,3 1,7 0,0
13.11.2018 18:00:00 3,2 2,1 0,0
13.11.2018 17:00:00 5,4 2,9 0,0
13.11.2018 16:00:00 8,7 4,2 0,0
13.11.2018 15:00:00 10,7 5,0 0,0
13.11.2018 14:00:00 12,2 6,2 0,0
13.11.2018 13:00:00 11,7 6,1 0,0
13.11.2018 12:00:00 10,4 6,3 0,0
13.11.2018 11:00:00 8,9 7,3 0,0
13.11.2018 10:00:00 4,4 4,4 0,0
13.11.2018 09:00:00 3,1 3,0 0,0
13.11.2018 08:00:00 3,3 3,3 0,0
13.11.2018 07:00:00 2,4 2,4 0,0
13.11.2018 06:00:00 2,1 2,0 0,0
13.11.2018 05:00:00 2,4 2,2 0,0
13.11.2018 04:00:00 2,9 2,6 0,0
13.11.2018 03:00:00 3,2 2,9 0,0
13.11.2018 02:00:00 4,0 3,5 0,0
13.11.2018 01:00:00 5,3 4,1 0,0
13.11.2018 00:00:00 7,0 5,4 0,0
12.11.2018 23:00:00 7,3 5,9 0,0
12.11.2018 22:00:00 7,6 6,1 0,0
12.11.2018 21:00:00 8,1 6,3 0,0
12.11.2018 20:00:00 8,5 6,1 0,0
12.11.2018 19:00:00 9,2 6,1 0,0
12.11.2018 18:00:00 9,7 7,2 0,0
12.11.2018 17:00:00 9,4 7,3 0,0
12.11.2018 16:00:00 9,5 6,9 0,0
12.11.2018 15:00:00 10,1 6,3 0,0
12.11.2018 14:00:00 10,8 6,8 0,0
12.11.2018 13:00:00 10,8 7,4 0,0
12.11.2018 12:00:00 10,1 7,0 0,0
12.11.2018 11:00:00 10,1 7,4 0,0
12.11.2018 10:00:00 8,7 7,1 0,0
12.11.2018 09:00:00 7,4 6,7 0,0
12.11.2018 08:00:00 6,7 6,0 0,0
12.11.2018 07:00:00 7,4 6,6 0,2
12.11.2018 06:00:00 6,4 5,8 0,0
12.11.2018 05:00:00 6,4 6,0 0,0
12.11.2018 04:00:00 4,5 4,1 0,0
12.11.2018 03:00:00 5,2 4,5 0,0
12.11.2018 02:00:00 6,0 5,5 0,0
12.11.2018 01:00:00 5,0 4,6 0,0
12.11.2018 00:00:00 4,1 3,1 0,0
11.11.2018 23:00:00 3,5 2,5 0,0
11.11.2018 22:00:00 4,4 3,4 0,0
11.11.2018 21:00:00 3,9 2,9 0,0
11.11.2018 20:00:00 6,6 5,0 0,0
11.11.2018 19:00:00 8,0 6,8 0,0
11.11.2018 18:00:00 8,0 6,9 0,0
11.11.2018 17:00:00 8,0 6,7 0,0
11.11.2018 16:00:00 8,4 6,4 0,0
11.11.2018 15:00:00 8,9 6,6 0,0
11.11.2018 14:00:00 9,1 7,3 0,0
11.11.2018 13:00:00 8,7 8,1 0,0
11.11.2018 12:00:00 7,7 7,0 0,0
11.11.2018 11:00:00 7,1 7,1 0,0
11.11.2018 10:00:00 5,7 5,7 0,0
11.11.2018 09:00:00 3,6 3,6 0,0
11.11.2018 08:00:00 3,4 3,2 0,0
11.11.2018 07:00:00 3,7 3,6 0,0
11.11.2018 06:00:00 4,8 4,8 0,0
11.11.2018 05:00:00 3,8 3,6 0,0
11.11.2018 04:00:00 3,9 3,4 0,0
11.11.2018 03:00:00 5,1 4,5 0,2
11.11.2018 02:00:00 6,5 5,7 0,0
11.11.2018 01:00:00 7,7 6,6 0,0
11.11.2018 00:00:00 8,4 7,1 0,0
10.11.2018 23:00:00 9,0 8,4 0,0
10.11.2018 22:00:00 8,8 8,6 1,2
10.11.2018 21:00:00 7,3 7,3 0,0
10.11.2018 20:00:00 4,9 4,3 0,0
10.11.2018 19:00:00 6,1 5,1 0,0
10.11.2018 18:00:00 7,1 5,4 0,0
10.11.2018 17:00:00 7,0 4,9 0,0
10.11.2018 16:00:00 8,1 4,6 0,0
10.11.2018 15:00:00 9,0 4,4 0,0
10.11.2018 14:00:00 10,5 3,7 0,0
10.11.2018 13:00:00 11,8 5,4 0,0
10.11.2018 12:00:00 10,6 5,8 0,0
10.11.2018 11:00:00 10,0 6,7 0,0
10.11.2018 10:00:00 9,0 6,3 0,0
10.11.2018 09:00:00 8,1 6,7 0,0
10.11.2018 08:00:00 8,2 7,2 0,0
10.11.2018 07:00:00 8,8 7,4 0,0
10.11.2018 06:00:00 9,6 8,3 0,0
10.11.2018 05:00:00 9,5 8,2 0,0
10.11.2018 04:00:00 9,8 8,6 0,2
10.11.2018 03:00:00 9,7 8,8 1,4
10.11.2018 02:00:00 9,4 8,6 2,6
10.11.2018 01:00:00 9,3 8,3 1,8
10.11.2018 00:00:00 9,3 7,9 1,2
09.11.2018 23:00:00 10,3 7,9 0,0
09.11.2018 22:00:00 10,1 8,8 1,4
09.11.2018 21:00:00 10,3 8,7 0,2
09.11.2018 20:00:00 10,1 8,5 0,0
09.11.2018 19:00:00 10,2 7,6 0,0
09.11.2018 18:00:00 10,0 7,5 0,0
09.11.2018 17:00:00 10,0 7,2 0,0
09.11.2018 16:00:00 10,2 7,2 0,0
09.11.2018 15:00:00 10,2 7,1 0,0
09.11.2018 14:00:00 10,3 6,8 0,0
09.11.2018 13:00:00 10,1 6,4 0,0
09.11.2018 12:00:00 10,1 6,1 0,0
09.11.2018 11:00:00 9,9 6,4 0,0
09.11.2018 10:00:00 9,5 6,1 0,0
09.11.2018 09:00:00 9,2 6,2 0,0

tt = Température de l'air
td = dewpoint
rr = Quantités de précipitations

stations d'obs. à proximité